createdAt,value
2018-10-09T00:01:31.779Z,12.13
2018-10-09T00:03:58.946Z,11.70
2018-10-09T00:06:26.356Z,11.90
2018-10-09T00:08:53.532Z,10.97
2018-10-09T00:11:20.739Z,10.20
2018-10-09T00:13:47.930Z,10.50
2018-10-09T00:16:15.130Z,10.83
2018-10-09T00:18:42.343Z,11.13
2018-10-09T00:21:09.518Z,10.80
2018-10-09T00:23:36.726Z,10.77
2018-10-09T00:26:03.934Z,9.43
2018-10-09T00:28:31.110Z,10.70
2018-10-09T00:30:58.310Z,9.50
2018-10-09T00:33:25.479Z,10.20
2018-10-09T00:35:52.666Z,8.90
2018-10-09T00:38:19.885Z,10.07
2018-10-09T00:40:47.091Z,10.40
2018-10-09T00:43:14.286Z,10.17
2018-10-09T00:45:41.462Z,10.97
2018-10-09T00:48:08.686Z,10.03
2018-10-09T00:50:35.891Z,10.00
2018-10-09T00:53:03.086Z,11.03
2018-10-09T00:55:30.310Z,10.83
2018-10-09T00:57:57.498Z,10.23
2018-10-09T01:00:24.684Z,10.00
2018-10-09T01:02:51.925Z,9.30
2018-10-09T01:05:19.084Z,10.60
2018-10-09T01:07:46.287Z,10.30
2018-10-09T01:10:13.482Z,11.43
2018-10-09T01:12:40.678Z,10.70
2018-10-09T01:15:07.885Z,10.60
2018-10-09T01:17:35.094Z,10.50
2018-10-09T01:20:02.497Z,9.80
2018-10-09T01:22:29.674Z,10.67
2018-10-09T01:24:56.879Z,10.70
2018-10-09T01:27:24.077Z,9.93
2018-10-09T01:29:51.299Z,11.50
2018-10-09T01:32:18.536Z,11.50
2018-10-09T01:34:45.759Z,10.60
2018-10-09T01:37:12.966Z,10.80
2018-10-09T01:39:40.151Z,10.67
2018-10-09T01:42:07.361Z,10.73
2018-10-09T01:44:34.562Z,9.73
2018-10-09T01:47:02.198Z,11.30
2018-10-09T01:49:29.419Z,10.70
2018-10-09T01:51:56.597Z,10.90
2018-10-09T01:54:23.802Z,10.20
2018-10-09T01:56:51.075Z,10.77
2018-10-09T01:59:18.258Z,10.60
2018-10-09T02:01:45.466Z,12.23
2018-10-09T02:04:12.639Z,11.10
2018-10-09T02:06:39.840Z,11.70
2018-10-09T02:09:07.588Z,10.77
2018-10-09T02:11:34.762Z,11.30
2018-10-09T02:14:02.306Z,12.97
2018-10-09T02:16:29.573Z,11.83
2018-10-09T02:18:56.743Z,11.90
2018-10-09T02:21:23.926Z,12.33
2018-10-09T02:23:51.118Z,14.00
2018-10-09T02:26:18.321Z,11.10
2018-10-09T02:28:45.484Z,13.20
2018-10-09T02:31:12.680Z,12.90
2018-10-09T02:33:39.935Z,14.33
2018-10-09T02:36:07.092Z,13.10
2018-10-09T02:38:34.271Z,12.97
2018-10-09T02:41:02.529Z,15.03
2018-10-09T02:43:29.726Z,16.37
2018-10-09T02:45:57.850Z,15.53
2018-10-09T02:48:25.372Z,17.27
2018-10-09T02:50:52.561Z,15.03
2018-10-09T02:53:19.759Z,16.13
2018-10-09T02:55:46.979Z,15.53
2018-10-09T02:58:14.190Z,15.33
2018-10-09T03:00:41.394Z,15.13
2018-10-09T03:03:08.602Z,17.30
2018-10-09T03:05:35.814Z,15.40
2018-10-09T03:08:03.036Z,16.27
2018-10-09T03:10:30.232Z,14.37
2018-10-09T03:12:57.419Z,15.73
2018-10-09T03:15:24.631Z,15.07
2018-10-09T03:17:51.823Z,14.13
2018-10-09T03:20:19.022Z,16.13
2018-10-09T03:22:46.195Z,15.47
2018-10-09T03:25:13.399Z,15.57
2018-10-09T03:27:40.606Z,15.53
2018-10-09T03:30:08.546Z,17.40
2018-10-09T03:32:35.766Z,16.23
2018-10-09T03:35:03.204Z,17.70
2018-10-09T03:37:30.402Z,16.47
2018-10-09T03:39:57.608Z,16.17
2018-10-09T03:42:24.802Z,13.83
2018-10-09T03:44:52.010Z,14.87
2018-10-09T03:47:19.214Z,15.17
2018-10-09T03:49:46.436Z,13.30
2018-10-09T03:52:14.362Z,13.07
2018-10-09T03:54:41.566Z,13.43
2018-10-09T03:57:08.774Z,12.27
2018-10-09T03:59:35.958Z,15.13
2018-10-09T04:02:03.157Z,13.67
2018-10-09T04:04:30.332Z,13.80
2018-10-09T04:06:57.586Z,12.33
2018-10-09T04:09:24.794Z,15.00
2018-10-09T04:11:51.959Z,13.80
2018-10-09T04:14:19.174Z,14.37
2018-10-09T04:16:46.348Z,12.83
2018-10-09T04:19:13.567Z,14.30
2018-10-09T04:21:40.742Z,13.80
2018-10-09T04:24:07.934Z,17.77
2018-10-09T04:26:35.139Z,13.30
2018-10-09T04:29:02.683Z,14.50
2018-10-09T04:31:29.891Z,15.30
2018-10-09T04:33:57.083Z,14.40
2018-10-09T04:36:24.403Z,16.20
2018-10-09T04:38:51.603Z,15.23
2018-10-09T04:41:18.774Z,15.47
2018-10-09T04:43:45.973Z,15.67
2018-10-09T04:46:13.155Z,15.10
2018-10-09T04:48:40.371Z,15.23
2018-10-09T04:51:07.578Z,13.80
2018-10-09T04:53:34.758Z,15.93
2018-10-09T04:56:02.346Z,15.90
2018-10-09T04:58:29.518Z,16.10
2018-10-09T05:00:56.701Z,16.50
2018-10-09T05:03:23.955Z,16.67
2018-10-09T05:05:51.114Z,16.13
2018-10-09T05:08:18.313Z,15.83
2018-10-09T05:10:45.490Z,15.33
2018-10-09T05:13:12.674Z,14.97
2018-10-09T05:15:39.846Z,14.07
2018-10-09T05:18:07.026Z,14.20
2018-10-09T05:20:34.190Z,14.73
2018-10-09T05:23:01.631Z,13.53
2018-10-09T05:25:28.797Z,13.57
2018-10-09T05:27:56.018Z,13.40
2018-10-09T05:30:23.217Z,14.90
2018-10-09T05:32:50.499Z,14.17
2018-10-09T05:35:17.730Z,15.57
2018-10-09T05:37:44.998Z,13.30
2018-10-09T05:40:12.262Z,14.03
2018-10-09T05:42:39.458Z,13.40
2018-10-09T05:45:06.669Z,12.47
2018-10-09T05:47:33.836Z,16.93
2018-10-09T05:50:01.722Z,17.07
2018-10-09T05:52:28.916Z,15.90
2018-10-09T05:54:56.063Z,14.80
2018-10-09T05:57:23.260Z,15.97
2018-10-09T05:59:50.438Z,15.53
2018-10-09T06:02:17.621Z,14.80
2018-10-09T06:04:44.836Z,13.73
2018-10-09T06:07:12.022Z,13.67
2018-10-09T06:09:39.210Z,15.20
2018-10-09T06:12:06.415Z,14.70
2018-10-09T06:14:33.611Z,17.93
2018-10-09T06:17:01.076Z,18.73
2018-10-09T06:19:28.247Z,19.97
2018-10-09T06:21:55.456Z,14.97
2018-10-09T06:24:22.644Z,16.13
2018-10-09T06:26:49.826Z,15.53
2018-10-09T06:29:17.028Z,16.57
2018-10-09T06:31:44.194Z,16.90
2018-10-09T06:34:11.393Z,16.67
2018-10-09T06:36:38.673Z,16.47
2018-10-09T06:39:06.555Z,19.47
2018-10-09T06:41:33.884Z,22.70
2018-10-09T06:44:07.594Z,20.73
2018-10-09T06:46:34.763Z,20.13
2018-10-09T06:49:02.139Z,19.43
2018-10-09T06:51:29.336Z,18.13
2018-10-09T06:53:56.779Z,20.30
2018-10-09T06:56:23.694Z,19.50
2018-10-09T06:58:50.866Z,19.50
2018-10-09T07:01:18.140Z,19.70
2018-10-09T07:03:45.318Z,19.47
2018-10-09T07:06:12.531Z,20.73
2018-10-09T07:08:39.699Z,20.17
2018-10-09T07:11:06.945Z,19.23
2018-10-09T07:13:34.130Z,22.60
2018-10-09T07:16:02.389Z,21.30
2018-10-09T07:18:29.607Z,22.40
2018-10-09T07:20:56.771Z,23.50
2018-10-09T07:23:23.975Z,22.90
2018-10-09T07:25:51.151Z,24.30
2018-10-09T07:28:18.369Z,25.80
2018-10-09T07:30:45.545Z,31.17
2018-10-09T07:33:12.764Z,50.23
2018-10-09T07:35:39.939Z,49.90
2018-10-09T07:38:07.163Z,43.33
2018-10-09T07:40:34.343Z,48.73
2018-10-09T07:43:01.575Z,49.53
2018-10-09T07:45:28.784Z,42.73
2018-10-09T07:47:55.938Z,40.33
2018-10-09T07:50:23.128Z,38.30
2018-10-09T07:52:50.514Z,38.83
2018-10-09T07:55:17.634Z,46.93
2018-10-09T07:57:45.607Z,40.17
2018-10-09T08:00:12.843Z,39.13
2018-10-09T08:02:40.055Z,35.60
2018-10-09T08:05:07.247Z,41.47
2018-10-09T08:07:34.442Z,40.30
2018-10-09T08:10:02.490Z,37.43
2018-10-09T08:12:29.663Z,34.20
2018-10-09T08:14:56.904Z,36.30
2018-10-09T08:17:24.099Z,32.97
2018-10-09T08:19:51.267Z,34.53
2018-10-09T08:22:18.483Z,35.03
2018-10-09T08:24:46.658Z,30.33
2018-10-09T08:27:14.426Z,32.57
2018-10-09T08:29:42.347Z,40.83
2018-10-09T08:32:10.592Z,38.20
2018-10-09T08:34:38.364Z,37.17
2018-10-09T08:37:05.710Z,31.70
2018-10-09T08:39:32.954Z,34.33
2018-10-09T08:42:00.299Z,32.77
2018-10-09T08:44:27.510Z,32.87
2018-10-09T08:46:54.732Z,33.67
2018-10-09T08:49:22.267Z,38.23
2018-10-09T08:51:49.499Z,36.10
2018-10-09T08:54:16.658Z,32.87
2018-10-09T08:56:43.830Z,36.53
2018-10-09T08:59:11.834Z,34.20
2018-10-09T09:01:39.567Z,35.60
2018-10-09T09:04:06.766Z,35.40
2018-10-09T09:06:33.978Z,36.23
2018-10-09T09:09:01.154Z,50.00
2018-10-09T09:11:28.938Z,39.43
2018-10-09T09:13:56.233Z,41.03
2018-10-09T09:16:23.427Z,43.90
2018-10-09T09:18:51.734Z,39.30
2018-10-09T09:21:18.948Z,37.30
2018-10-09T09:23:46.309Z,41.20
2018-10-09T09:26:14.521Z,42.30
2018-10-09T09:28:42.116Z,41.40
2018-10-09T09:31:09.341Z,44.50
2018-10-09T09:33:36.807Z,42.10
2018-10-09T09:36:04.651Z,38.17
2018-10-09T09:38:32.643Z,40.77
2018-10-09T09:41:00.676Z,41.00
2018-10-09T09:43:28.321Z,42.70
2018-10-09T09:45:55.605Z,40.40
2018-10-09T09:48:22.703Z,39.23
2018-10-09T09:50:49.906Z,41.00
2018-10-09T09:53:17.103Z,39.87
2018-10-09T09:55:44.291Z,38.77
2018-10-09T09:58:11.524Z,36.83
2018-10-09T10:00:44.225Z,36.63
2018-10-09T10:03:11.403Z,41.03
2018-10-09T10:05:38.590Z,43.27
2018-10-09T10:08:05.759Z,38.77
2018-10-09T10:10:32.949Z,38.77
2018-10-09T10:13:00.143Z,33.80
2018-10-09T10:15:27.308Z,38.73
2018-10-09T10:17:54.495Z,35.33
2018-10-09T10:20:21.686Z,42.30
2018-10-09T10:22:48.879Z,37.07
2018-10-09T10:25:16.039Z,38.03
2018-10-09T10:27:43.264Z,39.80
2018-10-09T10:30:11.067Z,36.40
2018-10-09T10:32:38.281Z,36.80
2018-10-09T10:35:05.460Z,33.50
2018-10-09T10:37:32.623Z,34.03
2018-10-09T10:39:59.822Z,37.17
2018-10-09T10:42:26.983Z,34.20
2018-10-09T10:44:54.159Z,33.90
2018-10-09T10:47:21.327Z,35.90
2018-10-09T10:49:48.510Z,38.50
2018-10-09T10:52:15.681Z,38.47
2018-10-09T10:54:42.934Z,37.90
2018-10-09T10:57:10.105Z,36.50
2018-10-09T10:59:37.315Z,38.33
2018-10-09T11:02:04.527Z,36.53
2018-10-09T11:04:31.712Z,37.87
2018-10-09T11:06:58.880Z,38.53
2018-10-09T11:09:26.061Z,37.40
2018-10-09T11:11:53.223Z,35.07
2018-10-09T11:14:20.415Z,37.57
2018-10-09T11:16:47.598Z,36.20
2018-10-09T11:19:14.763Z,35.57
2018-10-09T11:21:42.016Z,35.83
2018-10-09T11:24:09.130Z,32.10
2018-10-09T11:26:36.319Z,32.70
2018-10-09T11:29:03.515Z,31.97
2018-10-09T11:31:30.679Z,33.33
2018-10-09T11:33:57.890Z,32.50
2018-10-09T11:36:25.082Z,36.00
2018-10-09T11:38:52.242Z,33.93
2018-10-09T11:41:19.439Z,33.97
2018-10-09T11:43:46.616Z,36.40
2018-10-09T11:46:13.823Z,31.70
2018-10-09T11:48:41.020Z,31.50
2018-10-09T11:51:08.187Z,32.57
2018-10-09T11:53:35.360Z,33.30
2018-10-09T11:56:02.902Z,32.70
2018-10-09T11:58:30.671Z,29.13
2018-10-09T12:01:01.686Z,27.80
2018-10-09T12:03:29.352Z,29.70
2018-10-09T12:05:56.599Z,30.10
2018-10-09T12:08:23.797Z,28.87
2018-10-09T12:10:50.984Z,31.87
2018-10-09T12:13:18.181Z,28.47
2018-10-09T12:15:45.402Z,28.03
2018-10-09T12:18:12.599Z,27.57
2018-10-09T12:20:39.789Z,27.00
2018-10-09T12:23:06.961Z,28.40
2018-10-09T12:25:34.138Z,28.20
2018-10-09T12:28:01.650Z,26.60
2018-10-09T12:30:28.798Z,25.67
2018-10-09T12:32:56.002Z,24.83
2018-10-09T12:35:23.148Z,26.10
2018-10-09T12:37:50.331Z,25.47
2018-10-09T12:40:17.515Z,25.50
2018-10-09T12:42:44.665Z,24.30
2018-10-09T12:45:11.853Z,25.57
2018-10-09T12:47:39.016Z,24.80
2018-10-09T12:50:06.206Z,24.07
2018-10-09T12:52:33.378Z,29.03
2018-10-09T12:55:00.522Z,27.00
2018-10-09T12:57:27.725Z,25.93
2018-10-09T12:59:54.880Z,23.37
2018-10-09T13:02:22.059Z,23.13
2018-10-09T13:04:49.244Z,22.20
2018-10-09T13:07:16.447Z,20.43
2018-10-09T13:09:43.624Z,21.70
2018-10-09T13:12:10.803Z,20.57
2018-10-09T13:14:38.206Z,22.50
2018-10-09T13:17:05.454Z,22.57
2018-10-09T13:19:32.599Z,19.70
2018-10-09T13:21:59.925Z,19.40
2018-10-09T13:24:26.935Z,20.70
2018-10-09T13:26:54.111Z,19.37
2018-10-09T13:29:21.287Z,18.70
2018-10-09T13:31:49.488Z,19.03
2018-10-09T13:34:16.684Z,17.90
2018-10-09T13:36:43.828Z,17.40
2018-10-09T13:39:10.982Z,18.43
2018-10-09T13:41:38.183Z,18.77
2018-10-09T13:44:05.352Z,19.27
2018-10-09T13:46:32.491Z,22.10
2018-10-09T13:48:59.675Z,23.50
2018-10-09T13:51:26.856Z,22.83
2018-10-09T13:53:54.035Z,23.07
2018-10-09T13:56:21.195Z,22.60
2018-10-09T13:58:48.378Z,21.37
2018-10-09T14:01:15.538Z,21.13
2018-10-09T14:03:42.723Z,21.30
2018-10-09T14:06:09.929Z,20.73
2018-10-09T14:08:37.030Z,19.70
2018-10-09T14:13:37.923Z,19.37
2018-10-09T14:16:05.108Z,18.30
2018-10-09T14:18:32.289Z,17.60
2018-10-09T14:20:59.468Z,18.27
2018-10-09T14:23:26.643Z,18.20
2018-10-09T14:25:53.806Z,17.90
2018-10-09T14:28:20.988Z,16.67
2018-10-09T14:30:48.165Z,18.83
2018-10-09T14:35:49.031Z,17.97
2018-10-09T14:38:16.218Z,20.37
2018-10-09T14:40:43.390Z,22.70
2018-10-09T14:43:10.571Z,22.27
2018-10-09T14:45:37.789Z,23.23
2018-10-09T14:48:04.939Z,22.80
2018-10-09T14:50:32.151Z,20.97
2018-10-09T14:52:59.335Z,22.03
2018-10-09T14:55:26.518Z,21.63
2018-10-09T14:57:53.792Z,21.10
2018-10-09T15:00:20.985Z,21.00
2018-10-09T15:02:48.138Z,22.27
2018-10-09T15:05:15.291Z,22.67
2018-10-09T15:07:42.481Z,22.83
2018-10-09T15:10:09.663Z,21.83
2018-10-09T15:12:36.838Z,21.40
2018-10-09T15:15:04.046Z,21.33
2018-10-09T15:17:31.293Z,18.43
2018-10-09T15:19:58.399Z,18.93
2018-10-09T15:22:25.577Z,19.40
2018-10-09T15:24:52.723Z,18.70
2018-10-09T15:27:19.904Z,18.50
2018-10-09T15:29:47.154Z,19.53
2018-10-09T15:32:14.331Z,18.57
2018-10-09T15:34:41.519Z,19.63
2018-10-09T15:37:08.681Z,16.83
2018-10-09T15:39:35.896Z,18.47
2018-10-09T15:42:03.013Z,18.00
2018-10-09T15:44:30.200Z,19.80
2018-10-09T15:46:57.441Z,18.40
2018-10-09T15:49:24.618Z,18.60
2018-10-09T15:51:51.971Z,18.33
2018-10-09T15:54:19.142Z,18.00
2018-10-09T15:56:46.430Z,17.83
2018-10-09T15:59:13.603Z,19.47
2018-10-09T16:01:40.812Z,17.40
2018-10-09T16:04:08.102Z,18.40
2018-10-09T16:06:35.178Z,17.70
2018-10-09T16:09:02.844Z,17.30
2018-10-09T16:11:30.370Z,18.13
2018-10-09T16:13:57.571Z,17.17
2018-10-09T16:16:24.726Z,17.40
2018-10-09T16:18:51.890Z,17.03
2018-10-09T16:21:19.063Z,18.03
2018-10-09T16:23:46.240Z,16.47
2018-10-09T16:26:13.414Z,18.20
2018-10-09T16:28:40.606Z,17.73
2018-10-09T16:31:07.782Z,17.07
2018-10-09T16:33:34.970Z,19.83
2018-10-09T16:36:03.122Z,19.47
2018-10-09T16:38:30.275Z,18.93
2018-10-09T16:40:57.441Z,19.43
2018-10-09T16:43:24.622Z,20.50
2018-10-09T16:45:51.806Z,20.90
2018-10-09T16:48:18.974Z,20.63
2018-10-09T16:50:46.142Z,20.40
2018-10-09T16:53:13.327Z,21.20
2018-10-09T16:55:40.518Z,19.13
2018-10-09T16:58:07.703Z,19.80
2018-10-09T17:00:34.894Z,20.00
2018-10-09T17:03:02.266Z,19.53
2018-10-09T17:05:29.445Z,19.07
2018-10-09T17:07:56.590Z,21.00
2018-10-09T17:10:23.771Z,20.10
2018-10-09T17:12:51.135Z,19.43
2018-10-09T17:15:18.348Z,20.07
2018-10-09T17:17:45.499Z,20.97
2018-10-09T17:20:12.758Z,21.00
2018-10-09T17:22:39.927Z,20.07
2018-10-09T17:25:07.093Z,21.10
2018-10-09T17:27:34.275Z,20.03
2018-10-09T17:30:01.435Z,21.90
2018-10-09T17:32:28.668Z,19.60
2018-10-09T17:34:55.938Z,21.50
2018-10-09T17:37:23.199Z,20.93
2018-10-09T17:39:50.380Z,20.93
2018-10-09T17:42:17.683Z,21.10
2018-10-09T17:44:44.782Z,21.33
2018-10-09T17:47:11.947Z,21.03
2018-10-09T17:49:40.414Z,20.97
2018-10-09T17:52:07.843Z,20.27
2018-10-09T17:54:35.130Z,22.33
2018-10-09T17:57:02.782Z,21.43
2018-10-09T17:59:29.953Z,22.77
2018-10-09T18:01:57.402Z,22.30
2018-10-09T18:04:24.649Z,20.83
2018-10-09T18:06:51.822Z,20.90
2018-10-09T18:09:19.001Z,19.50
2018-10-09T18:11:46.182Z,22.23
2018-10-09T18:14:13.384Z,21.57
2018-10-09T18:16:40.567Z,21.52
2018-10-09T18:19:08.182Z,21.20
2018-10-09T18:21:35.943Z,22.00
2018-10-09T18:24:03.290Z,19.73
2018-10-09T18:26:30.494Z,21.40
2018-10-09T18:28:57.664Z,21.70
2018-10-09T18:31:24.851Z,20.43
2018-10-09T18:33:52.125Z,22.10
2018-10-09T18:36:19.438Z,22.70
2018-10-09T18:38:46.596Z,22.87
2018-10-09T18:41:13.824Z,22.63
2018-10-09T18:43:40.957Z,21.37
2018-10-09T18:46:08.134Z,23.33
2018-10-09T18:48:35.296Z,24.40
2018-10-09T18:51:02.953Z,23.23
2018-10-09T18:53:30.116Z,24.47
2018-10-09T18:55:57.294Z,21.80
2018-10-09T18:58:24.454Z,22.50
2018-10-09T19:00:51.604Z,23.47
2018-10-09T19:03:18.796Z,23.50
2018-10-09T19:05:45.950Z,23.20
2018-10-09T19:08:13.134Z,22.87
2018-10-09T19:10:40.615Z,23.60
2018-10-09T19:13:07.791Z,25.00
2018-10-09T19:15:34.947Z,24.00
2018-10-09T19:18:02.580Z,24.70
2018-10-09T19:20:29.806Z,23.43
2018-10-09T19:22:56.981Z,22.97
2018-10-09T19:25:24.139Z,24.20
2018-10-09T19:27:51.323Z,23.17
2018-10-09T19:30:18.683Z,23.90
2018-10-09T19:32:45.964Z,22.70
2018-10-09T19:35:13.055Z,23.27
2018-10-09T19:37:40.229Z,24.90
2018-10-09T19:40:07.402Z,22.27
2018-10-09T19:42:34.586Z,21.77
2018-10-09T19:45:02.315Z,22.00
2018-10-09T19:47:33.818Z,21.80
2018-10-09T19:50:01.392Z,23.20
2018-10-09T19:52:28.586Z,23.27
2018-10-09T19:54:55.762Z,23.47
2018-10-09T19:57:22.945Z,21.57
2018-10-09T19:59:50.116Z,23.80
2018-10-09T20:02:17.267Z,22.37
2018-10-09T20:04:44.444Z,22.60
2018-10-09T20:07:11.618Z,21.90
2018-10-09T20:09:38.802Z,23.30
2018-10-09T20:12:05.971Z,24.40
2018-10-09T20:14:33.192Z,23.07
2018-10-09T20:17:00.349Z,24.93
2018-10-09T20:19:27.507Z,22.00
2018-10-09T20:21:54.688Z,21.60
2018-10-09T20:24:21.838Z,20.53
2018-10-09T20:26:48.990Z,24.50
2018-10-09T20:29:16.190Z,22.67
2018-10-09T20:31:43.347Z,23.90
2018-10-09T20:34:10.523Z,25.33
2018-10-09T20:36:37.684Z,24.27
2018-10-09T20:39:05.751Z,24.73
2018-10-09T20:41:32.902Z,24.37
2018-10-09T20:44:00.178Z,25.87
2018-10-09T20:46:27.339Z,23.70
2018-10-09T20:48:54.509Z,22.80
2018-10-09T20:51:21.655Z,25.00
2018-10-09T20:53:48.806Z,21.47
2018-10-09T20:56:15.994Z,23.60
2018-10-09T20:58:43.146Z,20.73
2018-10-09T21:01:10.332Z,20.30
2018-10-09T21:03:37.503Z,21.67
2018-10-09T21:06:04.686Z,20.63
2018-10-09T21:08:31.862Z,20.77
2018-10-09T21:10:59.006Z,19.03
2018-10-09T21:13:26.204Z,19.40
2018-10-09T21:15:53.382Z,19.63
2018-10-09T21:18:20.562Z,18.13
2018-10-09T21:20:47.750Z,18.33
2018-10-09T21:23:14.930Z,17.00
2018-10-09T21:25:42.096Z,17.50
2018-10-09T21:28:09.346Z,17.17
2018-10-09T21:30:36.512Z,18.13
2018-10-09T21:33:03.687Z,17.00
2018-10-09T21:35:30.907Z,17.10
2018-10-09T21:37:58.090Z,17.00
2018-10-09T21:40:25.283Z,17.63
2018-10-09T21:42:52.462Z,15.03
2018-10-09T21:45:19.611Z,16.20
2018-10-09T21:47:52.188Z,16.50
2018-10-09T21:50:19.370Z,15.33
2018-10-09T21:52:46.516Z,17.90
2018-10-09T21:55:13.767Z,17.10
2018-10-09T21:57:41.095Z,16.10
2018-10-09T22:00:10.123Z,15.87
2018-10-09T22:02:37.646Z,16.00
2018-10-09T22:05:06.146Z,16.73
2018-10-09T22:07:33.307Z,15.77
2018-10-09T22:10:00.510Z,14.97
2018-10-09T22:12:27.663Z,16.37
2018-10-09T22:14:54.864Z,15.10
2018-10-09T22:17:22.009Z,15.73
2018-10-09T22:19:49.191Z,16.07
2018-10-09T22:22:16.371Z,14.20
2018-10-09T22:24:43.555Z,16.33
2018-10-09T22:27:10.723Z,14.00
2018-10-09T22:29:37.900Z,15.27
2018-10-09T22:32:05.052Z,14.70
2018-10-09T22:34:32.238Z,15.90
2018-10-09T22:36:59.507Z,15.17
2018-10-09T22:39:26.709Z,15.00
2018-10-09T22:41:53.884Z,15.60
2018-10-09T22:44:21.071Z,15.03
2018-10-09T22:46:48.219Z,14.73
2018-10-09T22:49:15.422Z,15.67
2018-10-09T22:51:42.635Z,15.77
2018-10-09T22:54:09.774Z,15.20
2018-10-09T22:56:36.955Z,15.00
2018-10-09T22:59:04.128Z,16.40
2018-10-09T23:01:31.299Z,16.47
2018-10-09T23:03:58.459Z,15.20
2018-10-09T23:06:25.643Z,15.70
2018-10-09T23:08:52.824Z,15.03
2018-10-09T23:11:19.977Z,16.30
2018-10-09T23:13:47.176Z,15.57
2018-10-09T23:16:14.317Z,14.43
2018-10-09T23:18:41.509Z,13.90
2018-10-09T23:21:08.653Z,16.83
2018-10-09T23:23:35.835Z,15.20
2018-10-09T23:26:03.021Z,14.87
2018-10-09T23:28:30.195Z,15.73
2018-10-09T23:30:57.375Z,15.17
2018-10-09T23:33:24.562Z,15.20
2018-10-09T23:35:51.746Z,15.20
2018-10-09T23:38:18.916Z,15.40
2018-10-09T23:40:46.088Z,16.20
2018-10-09T23:43:13.346Z,16.77
2018-10-09T23:45:40.465Z,14.80
2018-10-09T23:48:08.719Z,15.30
2018-10-09T23:50:36.668Z,17.90
2018-10-09T23:53:03.922Z,14.20
2018-10-09T23:55:31.094Z,15.27
2018-10-09T23:57:58.288Z,14.83
